Weather Data

Pearl Creek Farm: 8878 N Farm Road 75, Walnut Grove MO 65770

<== Previous Day (Wednesday 26 Apr 2017) | Next Day (Friday 28 Apr 2017) ==>

Summary Precipitation Data For Thursday 27 April 2017

ElementValueUnits
Precipitation0.39"
Notes(none)
SourcePearl Creek Farm

Summary Temperature Data For Thursday 27 April 2017

ElementValueUnits
High Temperature64 oF
Low Temperature41 oF
Average Temperature54 oF
High Humidity93 %
Low Humidity40 %
Average Humidity66 %
SourceSpringfield-Branson National Airport (SGF)

Detail Temperature Data For Thursday 27 April 2017

Date / TimeTemp (F)RH (%)Dew Pt (F)Report Date / TimeSource
2017-04-27 23:52:00 56 81 50.0 2017-12-29 17:00:26.17417 Springfield-Branson National Airport (SGF)
2017-04-27 00:52:00 45 90 42.0 2017-12-29 17:00:26.17417 Springfield-Branson National Airport (SGF)
2017-04-27 01:52:00 43 93 41.0 2017-12-29 17:00:26.17417 Springfield-Branson National Airport (SGF)
2017-04-27 02:52:00 43 89 40.0 2017-12-29 17:00:26.17417 Springfield-Branson National Airport (SGF)
2017-04-27 03:52:00 43 86 39.0 2017-12-29 17:00:26.17417 Springfield-Branson National Airport (SGF)
2017-04-27 04:52:00 42 85 38.0 2017-12-29 17:00:26.17417 Springfield-Branson National Airport (SGF)
2017-04-27 05:52:00 41 89 38.0 2017-12-29 17:00:26.17417 Springfield-Branson National Airport (SGF)
2017-04-27 06:52:00 44 79 38.0 2017-12-29 17:00:26.17417 Springfield-Branson National Airport (SGF)
2017-04-27 07:52:00 47 77 40.0 2017-12-29 17:00:26.17417 Springfield-Branson National Airport (SGF)
2017-04-27 08:52:00 50 66 39.0 2017-12-29 17:00:26.17417 Springfield-Branson National Airport (SGF)
2017-04-27 09:52:00 52 64 40.0 2017-12-29 17:00:26.17417 Springfield-Branson National Airport (SGF)
2017-04-27 10:52:00 55 59 41.0 2017-12-29 17:00:26.17417 Springfield-Branson National Airport (SGF)
2017-04-27 11:52:00 57 55 41.0 2017-12-29 17:00:26.17417 Springfield-Branson National Airport (SGF)
2017-04-27 12:52:00 59 49 40.0 2017-12-29 17:00:26.17417 Springfield-Branson National Airport (SGF)
2017-04-27 13:52:00 62 50 43.0 2017-12-29 17:00:26.17417 Springfield-Branson National Airport (SGF)
2017-04-27 14:52:00 62 44 40.0 2017-12-29 17:00:26.17417 Springfield-Branson National Airport (SGF)
2017-04-27 15:52:00 64 40 39.0 2017-12-29 17:00:26.17417 Springfield-Branson National Airport (SGF)
2017-04-27 16:52:00 64 43 41.0 2017-12-29 17:00:26.17417 Springfield-Branson National Airport (SGF)
2017-04-27 17:52:00 62 50 43.0 2017-12-29 17:00:26.17417 Springfield-Branson National Airport (SGF)
2017-04-27 18:52:00 62 50 43.0 2017-12-29 17:00:26.17417 Springfield-Branson National Airport (SGF)
2017-04-27 19:52:00 57 64 45.0 2017-12-29 17:00:26.17417 Springfield-Branson National Airport (SGF)
2017-04-27 20:52:00 60 53 43.0 2017-12-29 17:00:26.17417 Springfield-Branson National Airport (SGF)
2017-04-27 21:52:00 59 60 45.0 2017-12-29 17:00:26.17417 Springfield-Branson National Airport (SGF)
2017-04-27 22:52:00 58 67 47.0 2017-12-29 17:00:26.17417 Springfield-Branson National Airport (SGF)

A total of 24 rows are displayed.